createdAt,value
2018-04-13T00:07:12.000Z,21.84
2018-04-13T00:17:12.000Z,21.8
2018-04-13T00:27:12.000Z,21.79
2018-04-13T00:37:12.000Z,21.76
2018-04-13T00:47:12.000Z,21.71
2018-04-13T00:57:12.000Z,21.7
2018-04-13T01:07:13.000Z,21.67
2018-04-13T01:27:12.000Z,21.62
2018-04-13T01:37:12.000Z,21.59
2018-04-13T01:47:13.000Z,21.57
2018-04-13T01:57:12.000Z,21.54
2018-04-13T02:07:12.000Z,21.51
2018-04-13T02:17:12.000Z,21.48
2018-04-13T02:27:12.000Z,21.45
2018-04-13T02:37:12.000Z,21.43
2018-04-13T02:47:12.000Z,21.4
2018-04-13T02:57:12.000Z,21.37
2018-04-13T03:07:12.000Z,21.34
2018-04-13T03:17:12.000Z,21.32
2018-04-13T03:27:12.000Z,21.28
2018-04-13T03:37:12.000Z,21.26
2018-04-13T03:47:12.000Z,21.23
2018-04-13T03:57:12.000Z,21.19
2018-04-13T04:07:12.000Z,21.17
2018-04-13T04:17:12.000Z,21.14
2018-04-13T04:27:12.000Z,21.11
2018-04-13T04:37:12.000Z,21.09
2018-04-13T04:47:12.000Z,21.07
2018-04-13T04:57:12.000Z,21.05
2018-04-13T05:07:12.000Z,21.04
2018-04-13T05:17:12.000Z,21.04
2018-04-13T05:27:12.000Z,21.04
2018-04-13T05:37:12.000Z,21.03
2018-04-13T05:47:12.000Z,21.04
2018-04-13T05:57:12.000Z,21.06
2018-04-13T06:07:12.000Z,21.09
2018-04-13T06:17:12.000Z,21.11
2018-04-13T06:27:12.000Z,21.14
2018-04-13T06:37:12.000Z,21.15
2018-04-13T06:47:12.000Z,21.14
2018-04-13T06:57:12.000Z,21.17
2018-04-13T07:07:12.000Z,21.25
2018-04-13T07:17:12.000Z,21.29
2018-04-13T07:27:12.000Z,21.4
2018-04-13T07:37:12.000Z,21.46
2018-04-13T07:47:13.000Z,21.51
2018-04-13T07:57:13.000Z,21.57
2018-04-13T08:07:13.000Z,21.61
2018-04-13T08:17:13.000Z,21.64
2018-04-13T08:27:13.000Z,21.62
2018-04-13T08:37:13.000Z,21.65
2018-04-13T08:47:13.000Z,21.69
2018-04-13T08:57:13.000Z,21.68
2018-04-13T09:07:13.000Z,21.69
2018-04-13T09:17:14.000Z,21.72
2018-04-13T09:27:13.000Z,21.89
2018-04-13T09:37:13.000Z,21.97
2018-04-13T09:47:13.000Z,22.05
2018-04-13T09:57:13.000Z,22.17
2018-04-13T10:07:13.000Z,22.21
2018-04-13T10:17:13.000Z,22.18
2018-04-13T10:27:13.000Z,22.18
2018-04-13T10:37:13.000Z,22.17
2018-04-13T10:47:13.000Z,22.19
2018-04-13T10:57:16.000Z,22.22
2018-04-13T11:07:13.000Z,22.25
2018-04-13T11:17:13.000Z,22.24
2018-04-13T11:27:13.000Z,22.28
2018-04-13T11:37:13.000Z,22.33
2018-04-13T11:47:13.000Z,22.34
2018-04-13T11:57:13.000Z,22.32
2018-04-13T12:07:13.000Z,22.25
2018-04-13T12:17:13.000Z,22.2
2018-04-13T12:27:13.000Z,22.19
2018-04-13T12:37:13.000Z,22.2
2018-04-13T12:47:13.000Z,22.17
2018-04-13T12:57:13.000Z,22.16
2018-04-13T13:07:13.000Z,22.16
2018-04-13T13:17:13.000Z,22.17
2018-04-13T13:27:13.000Z,22.17
2018-04-13T13:37:13.000Z,22.16
2018-04-13T13:47:13.000Z,22.16
2018-04-13T13:57:13.000Z,22.15
2018-04-13T14:07:13.000Z,22.14
2018-04-13T14:17:13.000Z,22.14
2018-04-13T14:27:13.000Z,22.19
2018-04-13T14:37:13.000Z,22.2
2018-04-13T14:47:13.000Z,22.2
2018-04-13T14:57:13.000Z,22.21
2018-04-13T15:07:13.000Z,22.19
2018-04-13T15:17:13.000Z,22.17
2018-04-13T15:27:13.000Z,22.15
2018-04-13T15:47:14.000Z,22.16
2018-04-13T15:57:13.000Z,22.12
2018-04-13T16:07:13.000Z,22.08
2018-04-13T16:17:14.000Z,22.04
2018-04-13T16:27:15.000Z,22.08
2018-04-13T16:37:14.000Z,22.06
2018-04-13T16:47:13.000Z,22.04
2018-04-13T16:57:14.000Z,22.04
2018-04-13T17:07:14.000Z,22.04
2018-04-13T17:17:14.000Z,22.02
2018-04-13T17:27:14.000Z,22.08
2018-04-13T17:37:14.000Z,22.05
2018-04-13T17:47:14.000Z,22
2018-04-13T17:57:14.000Z,22.02
2018-04-13T18:07:14.000Z,22.02
2018-04-13T18:17:14.000Z,22.01
2018-04-13T18:27:14.000Z,22.02
2018-04-13T18:37:14.000Z,22.01
2018-04-13T18:47:14.000Z,21.98
2018-04-13T18:57:14.000Z,21.94
2018-04-13T19:07:14.000Z,21.91
2018-04-13T19:17:14.000Z,21.88
2018-04-13T19:27:14.000Z,21.86
2018-04-13T19:37:14.000Z,21.83
2018-04-13T19:47:14.000Z,21.8
2018-04-13T19:57:14.000Z,21.78
2018-04-13T20:07:14.000Z,21.76
2018-04-13T20:17:14.000Z,21.73
2018-04-13T20:27:14.000Z,21.71
2018-04-13T20:37:14.000Z,21.7
2018-04-13T20:47:14.000Z,21.67
2018-04-13T20:57:14.000Z,21.68
2018-04-13T21:07:14.000Z,21.65
2018-04-13T21:17:14.000Z,21.63
2018-04-13T21:27:14.000Z,21.63
2018-04-13T21:37:14.000Z,21.58
2018-04-13T21:57:15.000Z,21.51
2018-04-13T22:07:14.000Z,21.48
2018-04-13T22:17:14.000Z,21.45
2018-04-13T22:27:14.000Z,21.42
2018-04-13T22:37:14.000Z,21.39
2018-04-13T22:47:14.000Z,21.36
2018-04-13T22:57:14.000Z,21.33
2018-04-13T23:07:14.000Z,21.29
2018-04-13T23:17:14.000Z,21.26
2018-04-13T23:27:14.000Z,21.23
2018-04-13T23:37:14.000Z,21.2
2018-04-13T23:47:15.000Z,21.16
2018-04-13T23:57:14.000Z,21.14
